Swink, Oklahoma
Current Conditions -  °F | °C
As of 6:55 AM on Thursday 27 Nov 2014 (Local Time) from KHHW Reporting Station
Clear Clear  
Wind Chill: 30°   Ceiling: Unl
Heat Index: 34°   Visibility: 10mi
Dew Point: 26°   Wind: 5mph
Humidity: 72%   Direction: 310°NW
Pressure: 30.53"   Gusts: NA
Location:  34.02°N, 95.2°W
Report Text: KHHW 271255Z AUTO 31004KT 10SM CLR 01/M04 A3053 RMK AO2 T00101036
Loading
Personal Weather Stations






























Interactive Weather Map New forecast layout! Learn more

10-Day Weather Forecast

Advertisements
Track Severe Weather on mobile